Time;durP1;ratioP1;P1;durP2;ratioP2;P2;SDS_P1;SDS_P2;PMS_P1;PMS_P2;Temp;Humidity;BMP_temperature;BMP_pressure;BME280_temperature;BME280_humidity;BME280_pressure;Samples;Min_cycle;Max_cycle;Signal;HPM_P1;HPM_P2
2022/03/25 00:00:31;;;;;;;;;;;11.90;51.80;;;;;;5047772;28;19935;-69
2022/03/25 00:02:57;;;;;;;;;;;11.90;52.00;;;;;;5049396;28;19935;-69
2022/03/25 00:05:24;;;;;;;;;;;11.80;52.00;;;;;;5052548;28;19936;-68
2022/03/25 00:07:52;;;;;;;;;;;11.80;52.10;;;;;;5052643;28;19935;-69
2022/03/25 00:10:19;;;;;;;;;;;11.80;52.10;;;;;;5046375;28;19936;-69
2022/03/25 00:12:45;;;;;;;;;;;11.70;52.20;;;;;;5050514;28;20344;-69
2022/03/25 00:15:12;;;;;;;;;;;11.70;52.10;;;;;;5048338;28;19936;-69
2022/03/25 00:17:39;;;;;;;;;;;11.70;52.60;;;;;;5050065;28;19929;-69
2022/03/25 00:20:06;;;;;;;;;;;11.60;52.60;;;;;;5046429;28;20278;-69
2022/03/25 00:22:32;;;;;;;;;;;11.60;53.00;;;;;;5047314;28;20115;-69
2022/03/25 00:25:00;;;;;;;;;;;11.50;53.00;;;;;;5050072;28;19935;-69
2022/03/25 00:27:27;;;;;;;;;;;11.50;53.20;;;;;;5048563;28;19929;-69
2022/03/25 00:29:53;;;;;;;;;;;11.50;53.40;;;;;;5048694;28;19940;-69
2022/03/25 00:32:21;;;;;;;;;;;11.40;53.10;;;;;;5047064;28;19941;-69
2022/03/25 00:34:47;;;;;;;;;;;11.40;53.20;;;;;;5055773;28;19929;-69
2022/03/25 00:37:14;;;;;;;;;;;11.40;53.30;;;;;;5046555;28;19936;-69
2022/03/25 00:39:40;;;;;;;;;;;11.30;53.20;;;;;;5046485;28;19932;-69
2022/03/25 00:42:10;;;;;;;;;;;11.30;53.30;;;;;;5055103;28;19928;-69
2022/03/25 00:44:37;;;;;;;;;;;11.30;53.20;;;;;;5050621;28;19929;-69
2022/03/25 00:47:03;;;;;;;;;;;11.20;53.30;;;;;;5050949;28;19928;-69
2022/03/25 00:49:30;;;;;;;;;;;11.20;53.30;;;;;;5044572;28;20324;-68
2022/03/25 00:51:58;;;;;;;;;;;11.20;53.40;;;;;;5045350;28;19949;-69
2022/03/25 00:54:24;;;;;;;;;;;11.20;53.50;;;;;;5047405;28;20027;-68
2022/03/25 00:56:51;;;;;;;;;;;11.10;53.40;;;;;;5047638;28;19929;-70
2022/03/25 00:59:19;;;;;;;;;;;11.00;53.40;;;;;;5048865;28;19934;-69
2022/03/25 01:01:46;;;;;;;;;;;11.00;53.40;;;;;;5052103;28;20212;-69
2022/03/25 01:04:12;;;;;;;;;;;11.00;53.50;;;;;;5050168;28;19950;-68
2022/03/25 01:06:39;;;;;;;;;;;10.90;53.50;;;;;;5049783;28;19940;-69
2022/03/25 01:09:05;;;;;;;;;;;10.90;53.70;;;;;;5053145;28;19929;-69
2022/03/25 01:11:33;;;;;;;;;;;10.90;53.70;;;;;;5046964;28;19940;-68
2022/03/25 01:13:59;;;;;;;;;;;10.80;53.90;;;;;;5050663;28;20055;-69
2022/03/25 01:16:27;;;;;;;;;;;10.80;54.00;;;;;;5048893;28;19936;-69
2022/03/25 01:18:54;;;;;;;;;;;10.80;53.80;;;;;;5048294;28;20419;-69
2022/03/25 01:21:20;;;;;;;;;;;10.70;53.90;;;;;;5051434;28;19928;-69
2022/03/25 01:23:48;;;;;;;;;;;10.70;53.90;;;;;;5048467;28;20080;-69
2022/03/25 01:26:14;;;;;;;;;;;10.70;54.20;;;;;;5049353;28;19933;-68
2022/03/25 01:28:41;;;;;;;;;;;10.60;54.30;;;;;;5045467;28;19933;-69
2022/03/25 01:31:09;;;;;;;;;;;10.60;54.30;;;;;;5051212;28;20400;-69
2022/03/25 01:33:37;;;;;;;;;;;10.60;54.20;;;;;;5044804;28;20290;-69
2022/03/25 01:36:04;;;;;;;;;;;10.50;54.40;;;;;;5049596;28;19933;-69
2022/03/25 01:38:32;;;;;;;;;;;10.50;54.30;;;;;;5043810;28;20618;-68
2022/03/25 01:40:59;;;;;;;;;;;10.50;54.30;;;;;;5048388;28;19929;-69
2022/03/25 01:43:25;;;;;;;;;;;10.40;54.40;;;;;;5048262;28;19929;-69
2022/03/25 01:45:53;;;;;;;;;;;10.40;54.70;;;;;;5047609;28;20427;-69
2022/03/25 01:48:21;;;;;;;;;;;10.40;54.80;;;;;;5049960;28;20396;-69
2022/03/25 01:50:50;;;;;;;;;;;10.30;54.60;;;;;;5046437;28;19932;-68
2022/03/25 01:53:17;;;;;;;;;;;10.30;54.70;;;;;;5046996;28;19928;-69
2022/03/25 01:55:48;;;;;;;;;;;10.30;54.60;;;;;;5046790;28;19928;-69
2022/03/25 01:58:15;;;;;;;;;;;10.20;54.80;;;;;;5045667;28;19928;-69
2022/03/25 02:00:41;;;;;;;;;;;10.20;54.80;;;;;;5049108;28;20691;-69
2022/03/25 02:03:08;;;;;;;;;;;10.20;54.90;;;;;;5050387;28;19951;-69
2022/03/25 02:05:35;;;;;;;;;;;10.10;54.80;;;;;;5051134;28;20217;-69
2022/03/25 02:08:03;;;;;;;;;;;10.10;54.90;;;;;;5051155;28;20021;-68
2022/03/25 02:10:30;;;;;;;;;;;10.10;55.00;;;;;;5048733;28;20099;-69
2022/03/25 02:12:56;;;;;;;;;;;10.00;55.20;;;;;;5049753;28;19929;-69
2022/03/25 02:15:32;;;;;;;;;;;10.00;55.20;;;;;;5047336;28;19933;-69
2022/03/25 02:18:01;;;;;;;;;;;10.00;55.10;;;;;;5047444;28;20020;-69
2022/03/25 02:20:27;;;;;;;;;;;10.00;55.10;;;;;;5049245;28;19936;-69
2022/03/25 02:22:55;;;;;;;;;;;9.90;55.30;;;;;;5041006;28;19933;-69
2022/03/25 02:25:26;;;;;;;;;;;9.90;55.30;;;;;;5048106;28;19933;-69
2022/03/25 02:27:53;;;;;;;;;;;9.90;55.40;;;;;;5045259;28;19961;-69
2022/03/25 02:30:20;;;;;;;;;;;9.80;55.30;;;;;;5045607;28;19929;-68
2022/03/25 02:32:46;;;;;;;;;;;9.80;55.40;;;;;;5045395;28;20019;-69
2022/03/25 02:35:13;;;;;;;;;;;9.70;55.50;;;;;;5049569;28;19929;-68
2022/03/25 02:37:40;;;;;;;;;;;9.70;55.60;;;;;;5043847;28;19932;-69
2022/03/25 02:40:08;;;;;;;;;;;9.70;55.60;;;;;;5049560;28;19935;-68
2022/03/25 02:42:35;;;;;;;;;;;9.70;55.60;;;;;;5050824;28;20019;-69
2022/03/25 02:45:01;;;;;;;;;;;9.60;55.70;;;;;;5055804;28;20419;-68
2022/03/25 02:47:28;;;;;;;;;;;9.60;55.70;;;;;;5042384;28;19937;-69
2022/03/25 02:49:55;;;;;;;;;;;9.60;55.80;;;;;;5044187;28;19929;-69
2022/03/25 02:52:21;;;;;;;;;;;9.50;55.90;;;;;;5045373;28;19933;-69
2022/03/25 02:54:48;;;;;;;;;;;9.50;56.10;;;;;;5045693;28;19933;-69
2022/03/25 02:57:16;;;;;;;;;;;9.50;56.20;;;;;;5044299;28;19940;-69
2022/03/25 02:59:43;;;;;;;;;;;9.50;56.30;;;;;;5048178;28;20018;-69
2022/03/25 03:02:10;;;;;;;;;;;9.40;56.30;;;;;;5049045;28;19929;-69
2022/03/25 03:04:37;;;;;;;;;;;9.40;56.30;;;;;;5044308;28;20039;-68
2022/03/25 03:07:04;;;;;;;;;;;9.40;56.30;;;;;;5043925;28;19940;-69
2022/03/25 03:09:31;;;;;;;;;;;9.30;56.20;;;;;;5043613;28;20031;-68
2022/03/25 03:11:57;;;;;;;;;;;9.30;56.30;;;;;;5046773;28;19932;-68
2022/03/25 03:14:26;;;;;;;;;;;9.30;56.30;;;;;;5044584;28;19929;-68
2022/03/25 03:16:52;;;;;;;;;;;9.30;56.50;;;;;;5043814;28;20023;-69
2022/03/25 03:19:19;;;;;;;;;;;9.20;56.60;;;;;;5050291;28;19935;-69
2022/03/25 03:21:46;;;;;;;;;;;9.20;56.50;;;;;;5047137;28;19928;-68
2022/03/25 03:24:14;;;;;;;;;;;9.20;56.70;;;;;;5050973;28;19934;-68
2022/03/25 03:26:40;;;;;;;;;;;9.20;56.70;;;;;;5046087;28;20400;-68
2022/03/25 03:29:07;;;;;;;;;;;9.20;56.70;;;;;;5044662;28;19929;-68
2022/03/25 03:31:35;;;;;;;;;;;9.10;56.80;;;;;;5048097;28;19933;-70
2022/03/25 03:34:01;;;;;;;;;;;9.10;56.70;;;;;;5045151;28;19955;-69
2022/03/25 03:36:28;;;;;;;;;;;9.00;56.90;;;;;;5048759;28;19952;-69
2022/03/25 03:38:54;;;;;;;;;;;9.00;56.90;;;;;;5043548;28;19929;-69
2022/03/25 03:41:21;;;;;;;;;;;9.00;57.00;;;;;;5049711;28;19929;-69
2022/03/25 03:43:48;;;;;;;;;;;9.00;57.10;;;;;;5044816;28;19968;-68
2022/03/25 03:46:14;;;;;;;;;;;8.90;57.10;;;;;;5048314;28;20280;-68
2022/03/25 03:48:42;;;;;;;;;;;8.90;57.10;;;;;;5048990;28;19929;-69
2022/03/25 03:51:09;;;;;;;;;;;8.90;57.20;;;;;;5042156;28;19928;-68
2022/03/25 03:53:36;;;;;;;;;;;8.80;57.20;;;;;;5045457;28;19971;-68
2022/03/25 03:56:02;;;;;;;;;;;8.80;57.20;;;;;;5043757;28;19933;-70
2022/03/25 03:58:29;;;;;;;;;;;8.70;57.20;;;;;;5042868;28;19928;-68
2022/03/25 04:00:55;;;;;;;;;;;8.70;57.20;;;;;;5043982;28;19936;-69
2022/03/25 04:03:22;;;;;;;;;;;8.70;57.40;;;;;;5046004;28;19939;-69
2022/03/25 04:05:50;;;;;;;;;;;8.70;57.50;;;;;;5050151;28;20399;-68
2022/03/25 04:08:16;;;;;;;;;;;8.60;57.60;;;;;;5048270;28;20278;-69
2022/03/25 04:10:43;;;;;;;;;;;8.60;57.70;;;;;;5057789;28;20346;-69
2022/03/25 04:13:10;;;;;;;;;;;8.60;57.70;;;;;;5049882;28;19936;-68
2022/03/25 04:15:36;;;;;;;;;;;8.60;57.70;;;;;;5054060;28;20126;-68
2022/03/25 04:18:03;;;;;;;;;;;8.50;57.80;;;;;;5047574;28;19940;-68
2022/03/25 04:20:29;;;;;;;;;;;8.50;57.80;;;;;;5056851;28;20388;-69
2022/03/25 04:22:58;;;;;;;;;;;8.50;57.90;;;;;;5051120;28;19928;-68
2022/03/25 04:25:24;;;;;;;;;;;8.50;57.80;;;;;;5054596;28;19974;-68
2022/03/25 04:27:51;;;;;;;;;;;8.40;58.40;;;;;;5046319;28;19932;-69
2022/03/25 04:30:19;;;;;;;;;;;8.40;57.90;;;;;;5047878;28;20411;-68
2022/03/25 04:32:45;;;;;;;;;;;8.40;58.10;;;;;;5049874;28;19990;-68
2022/03/25 04:35:12;;;;;;;;;;;8.40;58.00;;;;;;5054613;28;19933;-69
2022/03/25 04:37:39;;;;;;;;;;;8.30;57.90;;;;;;5051098;28;20605;-68
2022/03/25 04:40:09;;;;;;;;;;;8.30;57.90;;;;;;5046898;28;20475;-68
2022/03/25 04:42:36;;;;;;;;;;;8.30;58.10;;;;;;5047144;28;19940;-68
2022/03/25 04:45:02;;;;;;;;;;;8.20;58.10;;;;;;5055116;28;19935;-69
2022/03/25 04:47:29;;;;;;;;;;;8.20;58.30;;;;;;5044807;28;20412;-70
2022/03/25 04:49:56;;;;;;;;;;;8.20;58.20;;;;;;5048001;28;19929;-69
2022/03/25 04:52:22;;;;;;;;;;;8.10;58.40;;;;;;5054280;28;19937;-69
2022/03/25 04:54:51;;;;;;;;;;;8.10;58.40;;;;;;5049044;28;21720;-69
2022/03/25 04:57:18;;;;;;;;;;;8.10;58.50;;;;;;5050911;28;19928;-68
2022/03/25 04:59:45;;;;;;;;;;;8.00;58.50;;;;;;5050254;28;19935;-69
2022/03/25 05:02:12;;;;;;;;;;;8.00;58.60;;;;;;5048521;28;19972;-68
2022/03/25 05:04:38;;;;;;;;;;;8.00;58.60;;;;;;5052389;28;19935;-69
2022/03/25 05:07:05;;;;;;;;;;;8.00;58.70;;;;;;5046010;28;19936;-68
2022/03/25 05:09:33;;;;;;;;;;;8.00;58.70;;;;;;5052062;28;19932;-68
2022/03/25 05:12:00;;;;;;;;;;;7.90;58.70;;;;;;5048955;28;19960;-69
2022/03/25 05:14:28;;;;;;;;;;;8.00;58.70;;;;;;5046732;28;19928;-69
2022/03/25 05:16:54;;;;;;;;;;;7.90;58.80;;;;;;5044858;28;19935;-69
2022/03/25 05:19:21;;;;;;;;;;;7.90;58.80;;;;;;5049210;28;19933;-69
2022/03/25 05:21:48;;;;;;;;;;;7.90;59.00;;;;;;5045790;28;19936;-67
2022/03/25 05:24:14;;;;;;;;;;;7.90;59.10;;;;;;5047631;28;19936;-67
2022/03/25 05:26:41;;;;;;;;;;;7.80;59.20;;;;;;5044885;28;20093;-68
2022/03/25 05:29:09;;;;;;;;;;;7.80;59.10;;;;;;5046336;28;20015;-68
2022/03/25 05:31:37;;;;;;;;;;;7.80;59.10;;;;;;5046627;28;19928;-69
2022/03/25 05:34:04;;;;;;;;;;;7.80;59.20;;;;;;5050458;28;19939;-68
2022/03/25 05:36:31;;;;;;;;;;;7.70;59.20;;;;;;5052303;28;20405;-68
2022/03/25 05:38:58;;;;;;;;;;;7.70;59.30;;;;;;5046065;28;19960;-68
2022/03/25 05:41:25;;;;;;;;;;;7.70;59.30;;;;;;5049651;28;19933;-68
2022/03/25 05:43:52;;;;;;;;;;;7.70;59.40;;;;;;5046830;28;20413;-69
2022/03/25 05:46:18;;;;;;;;;;;7.60;59.40;;;;;;5045517;28;20003;-69
2022/03/25 05:48:46;;;;;;;;;;;7.60;59.40;;;;;;5046662;28;19935;-69
2022/03/25 05:51:13;;;;;;;;;;;7.60;59.40;;;;;;5041799;28;19932;-69
2022/03/25 05:53:40;;;;;;;;;;;7.60;59.50;;;;;;5051023;28;19933;-68
2022/03/25 05:56:07;;;;;;;;;;;7.60;59.40;;;;;;5048086;28;20323;-68
2022/03/25 05:58:34;;;;;;;;;;;7.60;59.60;;;;;;5049105;28;19939;-68
2022/03/25 06:01:00;;;;;;;;;;;7.50;59.50;;;;;;5048744;28;19968;-68
2022/03/25 06:03:27;;;;;;;;;;;7.50;59.50;;;;;;5051553;28;20412;-68
2022/03/25 06:05:55;;;;;;;;;;;7.50;59.50;;;;;;5049787;28;19975;-69
2022/03/25 06:08:23;;;;;;;;;;;7.50;59.50;;;;;;5049521;28;19940;-69
2022/03/25 06:10:49;;;;;;;;;;;7.40;59.60;;;;;;5048258;28;19932;-69
2022/03/25 06:13:16;;;;;;;;;;;7.40;59.50;;;;;;5048295;28;19929;-68
2022/03/25 06:15:43;;;;;;;;;;;7.40;59.80;;;;;;5046943;28;19929;-69
2022/03/25 06:18:09;;;;;;;;;;;7.40;59.90;;;;;;5049649;28;19936;-69
2022/03/25 06:20:36;;;;;;;;;;;7.40;59.90;;;;;;5048159;28;20397;-69
2022/03/25 06:23:04;;;;;;;;;;;7.30;59.80;;;;;;5046468;28;19929;-69
2022/03/25 06:25:30;;;;;;;;;;;7.30;60.20;;;;;;5045448;28;19929;-70
2022/03/25 06:27:58;;;;;;;;;;;7.00;62.40;;;;;;5047913;28;19929;-70
2022/03/25 06:30:27;;;;;;;;;;;6.90;63.20;;;;;;5046506;28;20023;-70
2022/03/25 06:32:54;;;;;;;;;;;6.80;63.40;;;;;;5046869;28;19932;-70
2022/03/25 06:35:21;;;;;;;;;;;6.80;63.40;;;;;;5045347;28;19928;-70
2022/03/25 06:37:48;;;;;;;;;;;6.90;63.40;;;;;;5042839;28;19955;-70
2022/03/25 06:40:16;;;;;;;;;;;6.90;63.40;;;;;;5045081;28;19933;-70
2022/03/25 06:42:43;;;;;;;;;;;6.80;63.20;;;;;;5049387;28;19967;-70
2022/03/25 06:45:10;;;;;;;;;;;6.90;63.10;;;;;;5050212;28;20404;-70
2022/03/25 06:47:37;;;;;;;;;;;6.90;63.10;;;;;;5048231;28;19959;-70
2022/03/25 06:50:04;;;;;;;;;;;6.90;63.00;;;;;;5044777;28;19936;-70
2022/03/25 06:52:31;;;;;;;;;;;6.90;62.70;;;;;;5050772;28;19944;-70
2022/03/25 06:54:58;;;;;;;;;;;6.90;62.60;;;;;;5051054;28;19932;-75
2022/03/25 06:57:26;;;;;;;;;;;6.90;62.80;;;;;;5045674;28;19940;-75
2022/03/25 06:59:53;;;;;;;;;;;6.90;62.90;;;;;;5048516;28;19933;-75
2022/03/25 07:02:20;;;;;;;;;;;6.90;62.80;;;;;;5049874;28;19936;-75
2022/03/25 07:04:47;;;;;;;;;;;6.90;62.80;;;;;;5049798;28;19928;-75
2022/03/25 07:07:14;;;;;;;;;;;6.90;62.80;;;;;;5046867;28;19930;-75
2022/03/25 07:09:41;;;;;;;;;;;6.90;62.80;;;;;;5044878;28;19932;-75
2022/03/25 07:12:08;;;;;;;;;;;6.90;62.70;;;;;;5045275;28;19928;-75
2022/03/25 07:14:36;;;;;;;;;;;6.90;62.60;;;;;;5047850;28;19940;-74
2022/03/25 07:17:03;;;;;;;;;;;6.90;62.70;;;;;;5041528;28;19940;-75
2022/03/25 07:19:29;;;;;;;;;;;6.90;62.70;;;;;;5046253;28;19928;-75
2022/03/25 07:21:56;;;;;;;;;;;6.90;62.70;;;;;;5047912;28;19932;-76
2022/03/25 07:24:23;;;;;;;;;;;6.90;62.70;;;;;;5044597;28;19936;-75
2022/03/25 07:26:49;;;;;;;;;;;6.90;62.70;;;;;;5046491;28;19929;-76
2022/03/25 07:29:16;;;;;;;;;;;6.90;62.80;;;;;;5042540;28;19928;-75
2022/03/25 07:31:44;;;;;;;;;;;6.90;62.70;;;;;;5048215;28;19971;-75
2022/03/25 07:34:10;;;;;;;;;;;6.90;62.70;;;;;;5046154;28;19928;-75
2022/03/25 07:36:37;;;;;;;;;;;6.90;62.60;;;;;;5045139;28;20389;-75
2022/03/25 07:39:03;;;;;;;;;;;6.90;62.50;;;;;;5045889;28;19929;-75
2022/03/25 07:41:30;;;;;;;;;;;6.90;62.50;;;;;;5048350;28;19932;-75
2022/03/25 07:43:57;;;;;;;;;;;6.90;62.40;;;;;;5050567;28;19928;-76
2022/03/25 07:46:24;;;;;;;;;;;7.00;62.50;;;;;;5051469;28;19936;-76
2022/03/25 07:48:52;;;;;;;;;;;7.00;62.40;;;;;;5050660;28;20358;-76
2022/03/25 07:51:18;;;;;;;;;;;7.00;62.30;;;;;;5052015;28;19929;-75
2022/03/25 07:53:46;;;;;;;;;;;7.00;62.40;;;;;;5056019;28;19936;-76
2022/03/25 07:56:12;;;;;;;;;;;7.00;62.30;;;;;;5055789;28;19929;-76
2022/03/25 07:58:39;;;;;;;;;;;7.00;62.20;;;;;;5054177;28;19936;-76
2022/03/25 08:01:05;;;;;;;;;;;7.00;62.20;;;;;;5048926;28;20377;-76
2022/03/25 08:03:32;;;;;;;;;;;7.00;62.10;;;;;;5043788;28;20331;-75
2022/03/25 08:06:00;;;;;;;;;;;7.10;62.00;;;;;;5048808;28;19951;-75
2022/03/25 08:08:26;;;;;;;;;;;7.10;61.80;;;;;;5052537;28;19940;-75
2022/03/25 08:10:55;;;;;;;;;;;7.10;61.60;;;;;;5047781;28;19940;-75
2022/03/25 08:13:22;;;;;;;;;;;7.10;61.50;;;;;;5048470;28;19937;-75
2022/03/25 08:15:48;;;;;;;;;;;7.20;61.30;;;;;;5042522;28;19933;-76
2022/03/25 08:18:16;;;;;;;;;;;7.20;61.30;;;;;;5044181;28;20313;-75
2022/03/25 08:20:44;;;;;;;;;;;7.20;61.20;;;;;;5041448;28;20017;-76
2022/03/25 08:23:13;;;;;;;;;;;7.20;61.90;;;;;;5048988;28;19940;-76
2022/03/25 08:28:26;;;;;;;;;;;7.30;60.90;;;;;;5017181;28;19928;-75
2022/03/25 08:30:53;;;;;;;;;;;7.40;60.70;;;;;;5043864;28;20031;-75
2022/03/25 08:33:22;;;;;;;;;;;7.40;60.60;;;;;;5045272;28;19929;-75
2022/03/25 08:35:48;;;;;;;;;;;7.50;60.50;;;;;;5044335;28;19933;-76
2022/03/25 08:38:16;;;;;;;;;;;7.50;60.40;;;;;;5045121;28;19986;-76
2022/03/25 08:40:43;;;;;;;;;;;7.60;60.30;;;;;;5047442;28;19928;-77
2022/03/25 08:43:09;;;;;;;;;;;7.60;60.00;;;;;;5048250;28;19929;-75
2022/03/25 08:45:36;;;;;;;;;;;7.70;59.90;;;;;;5050049;28;19936;-75
2022/03/25 08:48:03;;;;;;;;;;;7.70;59.80;;;;;;5049442;28;19941;-76
2022/03/25 08:50:29;;;;;;;;;;;7.70;59.70;;;;;;5048743;28;19929;-76
2022/03/25 08:52:56;;;;;;;;;;;7.80;59.60;;;;;;5039495;28;19940;-75
2022/03/25 08:55:24;;;;;;;;;;;7.90;59.50;;;;;;5045411;28;19933;-76
2022/03/25 08:57:50;;;;;;;;;;;7.90;59.30;;;;;;5049164;28;19929;-76
2022/03/25 09:00:18;;;;;;;;;;;7.90;59.20;;;;;;5046835;28;19929;-76
2022/03/25 09:02:45;;;;;;;;;;;8.00;59.10;;;;;;5047821;28;19929;-76
2022/03/25 09:05:12;;;;;;;;;;;8.10;58.90;;;;;;5050254;28;19979;-76
2022/03/25 09:07:39;;;;;;;;;;;8.10;58.70;;;;;;5045165;28;19936;-75
2022/03/25 09:10:07;;;;;;;;;;;8.20;58.60;;;;;;5049229;28;19932;-76
2022/03/25 09:12:35;;;;;;;;;;;8.20;58.40;;;;;;5049835;28;19940;-75
2022/03/25 09:15:02;;;;;;;;;;;8.30;58.30;;;;;;5049391;28;19940;-76
2022/03/25 09:17:29;;;;;;;;;;;8.40;58.20;;;;;;5051029;28;20710;-75
2022/03/25 09:19:55;;;;;;;;;;;8.40;58.10;;;;;;5046457;28;19929;-76
2022/03/25 09:22:22;;;;;;;;;;;8.50;58.00;;;;;;5045333;28;19928;-75
2022/03/25 09:24:48;;;;;;;;;;;8.50;57.80;;;;;;5045808;28;19929;-76
2022/03/25 09:27:15;;;;;;;;;;;8.60;57.70;;;;;;5043071;28;19936;-76
2022/03/25 09:29:45;;;;;;;;;;;8.70;57.60;;;;;;5047770;28;19932;-75
2022/03/25 09:32:11;;;;;;;;;;;8.70;57.40;;;;;;5048469;28;20538;-75
2022/03/25 09:37:22;;;;;;;;;;;8.80;57.30;;;;;;5037119;28;20703;-75
2022/03/25 09:39:49;;;;;;;;;;;8.90;57.20;;;;;;5050725;28;20346;-76
2022/03/25 09:42:16;;;;;;;;;;;9.00;57.10;;;;;;5047024;28;19972;-76
2022/03/25 09:44:45;;;;;;;;;;;9.00;57.00;;;;;;5052618;28;20010;-76
2022/03/25 09:47:14;;;;;;;;;;;9.10;57.00;;;;;;5052104;28;19982;-76
2022/03/25 09:49:41;;;;;;;;;;;9.10;56.90;;;;;;5047734;28;20645;-75
2022/03/25 09:52:08;;;;;;;;;;;9.20;56.80;;;;;;5045676;28;19936;-76
2022/03/25 09:54:34;;;;;;;;;;;9.20;56.70;;;;;;5052772;28;19935;-75
2022/03/25 09:57:01;;;;;;;;;;;9.40;56.80;;;;;;5050463;28;19936;-76
2022/03/25 09:59:27;;;;;;;;;;;9.40;56.70;;;;;;5046817;28;19939;-76
2022/03/25 10:01:55;;;;;;;;;;;9.50;56.60;;;;;;5047684;28;19929;-76
2022/03/25 10:04:40;;;;;;;;;;;9.60;56.50;;;;;;5046617;28;19929;-75
2022/03/25 10:07:18;;;;;;;;;;;9.60;56.30;;;;;;5051288;28;19929;-76
2022/03/25 10:09:44;;;;;;;;;;;9.70;56.20;;;;;;5049496;28;20381;-75
2022/03/25 10:12:21;;;;;;;;;;;9.80;56.20;;;;;;5046910;28;19929;-76
2022/03/25 10:14:49;;;;;;;;;;;9.90;55.90;;;;;;5046978;28;19970;-76
2022/03/25 10:17:17;;;;;;;;;;;9.90;55.80;;;;;;5044578;28;20567;-76
2022/03/25 10:22:28;;;;;;;;;;;10.10;55.80;;;;;;5045931;28;19929;-76
2022/03/25 10:25:03;;;;;;;;;;;10.20;55.60;;;;;;5041723;28;19941;-76
2022/03/25 10:27:29;;;;;;;;;;;10.20;55.30;;;;;;5044272;28;19929;-76
2022/03/25 10:29:56;;;;;;;;;;;10.30;55.20;;;;;;5046543;28;19940;-76
2022/03/25 10:32:26;;;;;;;;;;;10.40;54.90;;;;;;5045454;28;19933;-76
2022/03/25 10:35:06;;;;;;;;;;;10.40;55.00;;;;;;5047946;28;19939;-76
2022/03/25 10:37:33;;;;;;;;;;;10.50;54.90;;;;;;5045300;28;19936;-74
2022/03/25 10:40:00;;;;;;;;;;;10.60;54.70;;;;;;5054923;28;19935;-74
2022/03/25 10:42:26;;;;;;;;;;;10.60;54.70;;;;;;5052149;28;20661;-76
2022/03/25 10:44:53;;;;;;;;;;;10.70;54.80;;;;;;5045561;28;20305;-76
2022/03/25 10:47:20;;;;;;;;;;;10.80;54.60;;;;;;5044698;28;19932;-76
2022/03/25 10:49:49;;;;;;;;;;;10.90;54.50;;;;;;5045289;28;19929;-76
2022/03/25 10:52:26;;;;;;;;;;;10.90;54.30;;;;;;5046196;28;19929;-76
2022/03/25 10:55:13;;;;;;;;;;;11.00;53.90;;;;;;5045842;28;19940;-76
2022/03/25 10:57:47;;;;;;;;;;;11.10;54.00;;;;;;5045912;28;19929;-77
2022/03/25 11:00:14;;;;;;;;;;;11.20;54.20;;;;;;5043469;28;19928;-76
2022/03/25 11:02:41;;;;;;;;;;;11.30;54.00;;;;;;5045523;28;19928;-76
2022/03/25 11:05:10;;;;;;;;;;;11.30;53.70;;;;;;5044195;28;19939;-77
2022/03/25 11:07:37;;;;;;;;;;;11.40;53.70;;;;;;5044314;28;19971;-76
2022/03/25 11:10:03;;;;;;;;;;;11.50;53.60;;;;;;5045182;28;20385;-75
2022/03/25 11:12:30;;;;;;;;;;;11.60;53.60;;;;;;5053298;28;20311;-76
2022/03/25 11:14:59;;;;;;;;;;;11.70;53.50;;;;;;5047368;28;19929;-76
2022/03/25 11:17:26;;;;;;;;;;;11.70;53.40;;;;;;5051214;28;20431;-76
2022/03/25 11:19:54;;;;;;;;;;;11.80;53.30;;;;;;5050023;28;19940;-76
2022/03/25 11:22:23;;;;;;;;;;;11.90;53.00;;;;;;5051610;28;19932;-76
2022/03/25 11:24:52;;;;;;;;;;;11.90;52.70;;;;;;5049805;28;20290;-76
2022/03/25 11:27:21;;;;;;;;;;;12.10;52.80;;;;;;5052477;28;20055;-76
2022/03/25 11:29:49;;;;;;;;;;;12.20;52.90;;;;;;5054403;28;20409;-76
2022/03/25 11:32:16;;;;;;;;;;;12.20;52.70;;;;;;5048017;28;20616;-76
2022/03/25 11:34:43;;;;;;;;;;;12.30;52.40;;;;;;5051434;28;19935;-76
2022/03/25 11:37:18;;;;;;;;;;;12.30;52.20;;;;;;5049553;28;19929;-76
2022/03/25 11:39:45;;;;;;;;;;;12.40;51.80;;;;;;5055492;28;19939;-76
2022/03/25 11:42:27;;;;;;;;;;;12.50;51.90;;;;;;5054322;28;19933;-76
2022/03/25 11:45:32;;;;;;;;;;;12.50;51.70;;;;;;5046563;28;20310;-76
2022/03/25 11:48:18;;;;;;;;;;;12.60;51.60;;;;;;5048936;28;20599;-76
2022/03/25 11:50:45;;;;;;;;;;;12.80;51.60;;;;;;5051090;28;19933;-76
2022/03/25 11:53:26;;;;;;;;;;;12.80;51.20;;;;;;5051364;28;19929;-76
2022/03/25 11:55:55;;;;;;;;;;;12.90;51.30;;;;;;5049253;28;19955;-76
2022/03/25 11:58:22;;;;;;;;;;;13.00;51.30;;;;;;5051254;28;19929;-76
2022/03/25 12:00:49;;;;;;;;;;;13.10;51.30;;;;;;5049779;28;19958;-76
2022/03/25 12:03:16;;;;;;;;;;;13.10;51.10;;;;;;5053096;28;19928;-76
2022/03/25 12:05:57;;;;;;;;;;;13.20;50.90;;;;;;5056055;28;19928;-76
2022/03/25 12:08:24;;;;;;;;;;;13.30;50.80;;;;;;5058800;28;20491;-76
2022/03/25 12:10:52;;;;;;;;;;;13.40;50.70;;;;;;5053829;28;19929;-76
2022/03/25 12:13:20;;;;;;;;;;;13.40;50.50;;;;;;5052412;28;20229;-76
2022/03/25 12:15:48;;;;;;;;;;;13.50;50.50;;;;;;5054311;28;19943;-76
2022/03/25 12:18:33;;;;;;;;;;;13.50;50.40;;;;;;5047076;28;19991;-76
2022/03/25 12:20:59;;;;;;;;;;;13.60;50.40;;;;;;5053227;28;19929;-76
2022/03/25 12:23:26;;;;;;;;;;;13.70;49.90;;;;;;5051745;28;19932;-76
2022/03/25 12:25:53;;;;;;;;;;;13.80;50.00;;;;;;5048421;28;19933;-76
2022/03/25 12:28:24;;;;;;;;;;;13.80;50.00;;;;;;5047511;28;19936;-76
2022/03/25 12:30:51;;;;;;;;;;;13.90;50.00;;;;;;5049626;28;19936;-76
2022/03/25 12:33:19;;;;;;;;;;;13.90;49.90;;;;;;5049376;28;19928;-76
2022/03/25 12:35:46;;;;;;;;;;;14.00;49.80;;;;;;5045305;28;19933;-76
2022/03/25 12:38:19;;;;;;;;;;;14.10;49.90;;;;;;5047539;28;19929;-76
2022/03/25 12:40:45;;;;;;;;;;;14.20;49.80;;;;;;5051689;28;19937;-76
2022/03/25 12:43:12;;;;;;;;;;;14.20;49.70;;;;;;5048625;28;20015;-76
2022/03/25 12:45:41;;;;;;;;;;;14.30;49.40;;;;;;5052382;28;19932;-76
2022/03/25 12:48:09;;;;;;;;;;;14.30;49.40;;;;;;5050142;28;19933;-76
2022/03/25 12:50:36;;;;;;;;;;;14.40;48.90;;;;;;5049303;28;19936;-76
2022/03/25 12:53:04;;;;;;;;;;;14.50;49.20;;;;;;5056038;28;20599;-76
2022/03/25 12:55:32;;;;;;;;;;;14.50;49.10;;;;;;5048182;28;19928;-76
2022/03/25 12:58:02;;;;;;;;;;;14.60;49.00;;;;;;5045975;28;20015;-76
2022/03/25 13:00:32;;;;;;;;;;;14.60;48.80;;;;;;5044637;28;19933;-76
2022/03/25 13:03:00;;;;;;;;;;;14.70;48.80;;;;;;5044739;28;19929;-76
2022/03/25 13:05:27;;;;;;;;;;;14.80;48.60;;;;;;5045222;28;19929;-76
2022/03/25 13:07:54;;;;;;;;;;;14.90;48.60;;;;;;5045143;28;19940;-76
2022/03/25 13:10:21;;;;;;;;;;;14.90;48.40;;;;;;5051229;28;19928;-76
2022/03/25 13:12:51;;;;;;;;;;;15.00;48.30;;;;;;5048509;28;20594;-76
2022/03/25 13:15:19;;;;;;;;;;;15.00;47.90;;;;;;5047899;28;19935;-76
2022/03/25 13:17:46;;;;;;;;;;;15.00;48.10;;;;;;5043805;28;19929;-77
2022/03/25 13:20:15;;;;;;;;;;;15.20;47.80;;;;;;5049860;28;19935;-76
2022/03/25 13:22:55;;;;;;;;;;;15.20;47.80;;;;;;5051824;28;19928;-76
2022/03/25 13:25:25;;;;;;;;;;;15.30;47.80;;;;;;5048415;28;19974;-76
2022/03/25 13:27:53;;;;;;;;;;;15.30;46.80;;;;;;5042670;28;19964;-76
2022/03/25 13:30:19;;;;;;;;;;;15.40;46.80;;;;;;5043615;28;19928;-76
2022/03/25 13:32:46;;;;;;;;;;;15.40;46.90;;;;;;5045473;28;19940;-76
2022/03/25 13:35:15;;;;;;;;;;;15.50;46.90;;;;;;5044318;28;19929;-76
2022/03/25 13:37:41;;;;;;;;;;;15.50;46.90;;;;;;5047979;28;20312;-76
2022/03/25 13:40:23;;;;;;;;;;;15.60;46.90;;;;;;5044548;28;19948;-76
2022/03/25 13:42:53;;;;;;;;;;;15.70;46.80;;;;;;5043484;28;19928;-76
2022/03/25 13:45:20;;;;;;;;;;;15.80;46.30;;;;;;5042913;28;19936;-76
2022/03/25 13:47:56;;;;;;;;;;;15.80;46.30;;;;;;5052052;28;19928;-77
2022/03/25 13:50:24;;;;;;;;;;;15.80;46.20;;;;;;5043453;28;19929;-76
2022/03/25 13:52:55;;;;;;;;;;;15.90;45.90;;;;;;5037654;28;19939;-77
2022/03/25 13:55:31;;;;;;;;;;;16.00;45.80;;;;;;5043055;28;20454;-76
2022/03/25 13:57:58;;;;;;;;;;;16.00;45.50;;;;;;5049474;28;19944;-76
2022/03/25 14:00:35;;;;;;;;;;;16.10;45.10;;;;;;5044829;28;19995;-77
2022/03/25 14:03:03;;;;;;;;;;;16.10;44.90;;;;;;5051008;28;19928;-76
2022/03/25 14:05:33;;;;;;;;;;;16.20;44.80;;;;;;5043254;28;19925;-77
2022/03/25 14:08:00;;;;;;;;;;;16.30;44.70;;;;;;5044416;28;20393;-76
2022/03/25 14:10:26;;;;;;;;;;;16.30;44.30;;;;;;5043036;28;19928;-78
2022/03/25 14:12:57;;;;;;;;;;;16.30;43.80;;;;;;5042880;28;19932;-76
2022/03/25 14:15:25;;;;;;;;;;;16.40;43.80;;;;;;5044718;28;19933;-72
2022/03/25 14:17:52;;;;;;;;;;;16.40;43.80;;;;;;5045714;28;19935;-72
2022/03/25 14:20:19;;;;;;;;;;;16.50;43.50;;;;;;5053475;28;20536;-71
2022/03/25 14:22:48;;;;;;;;;;;16.60;43.20;;;;;;5040504;28;20316;-71
2022/03/25 14:25:15;;;;;;;;;;;16.60;42.90;;;;;;5050298;28;19928;-72
2022/03/25 14:27:43;;;;;;;;;;;16.70;43.20;;;;;;5044189;28;19972;-70
2022/03/25 14:30:10;;;;;;;;;;;16.70;43.00;;;;;;5044876;28;19936;-71
2022/03/25 14:32:36;;;;;;;;;;;16.80;42.90;;;;;;5048238;28;19936;-71
2022/03/25 14:35:03;;;;;;;;;;;16.80;42.80;;;;;;5045842;28;20264;-71